Time;durP1;ratioP1;P1;durP2;ratioP2;P2;SDS_P1;SDS_P2;PMS_P1;PMS_P2;Temp;Humidity;BMP_temperature;BMP_pressure;BME280_temperature;BME280_humidity;BME280_pressure;Samples;Min_cycle;Max_cycle;Signal;HPM_P1;HPM_P2
2022/10/28 00:04:23;;;;;;;0.65;0.40;;;;;;;16.06;67.71;101914.69;18292387;32;20094;-58
2022/10/28 00:14:27;;;;;;;0.40;0.40;;;;;;;15.95;67.91;101920.84;18306212;32;20343;-58
2022/10/28 00:24:30;;;;;;;0.30;0.30;;;;;;;15.17;71.10;101918.94;18306057;32;20115;-57
2022/10/28 00:34:35;;;;;;;0.77;0.73;;;;;;;15.78;68.54;101906.78;18305662;32;20101;-58
2022/10/28 00:44:48;;;;;;;0.82;0.60;;;;;;;15.94;68.08;101913.84;18305371;32;20517;-58
2022/10/28 00:54:52;;;;;;;0.30;0.30;;;;;;;15.87;68.35;101904.16;18304887;32;20094;-58
2022/10/28 01:04:56;;;;;;;0.50;0.50;;;;;;;15.95;68.09;101894.53;18304930;32;20119;-57
2022/10/28 01:15:10;;;;;;;0.22;0.22;;;;;;;15.91;68.09;101890.13;18304478;32;20248;-57
2022/10/28 01:25:51;;;;;;;0.37;0.37;;;;;;;15.78;68.54;101889.22;18305357;32;20112;-58
2022/10/28 01:35:59;;;;;;;0.20;0.20;;;;;;;15.91;68.27;101895.38;17983115;33;20119;-58
2022/10/28 01:46:05;;;;;;;2.53;0.43;;;;;;;15.93;68.25;101888.38;17981661;32;20133;-58
2022/10/28 01:56:11;;;;;;;0.30;0.30;;;;;;;15.93;68.13;101883.12;17982371;33;20137;-58
2022/10/28 02:06:18;;;;;;;0.40;0.40;;;;;;;15.94;68.20;101876.97;18098184;32;20421;-58
2022/10/28 02:16:28;;;;;;;0.40;0.40;;;;;;;15.96;68.19;101874.31;18309527;32;20081;-58
2022/10/28 02:26:35;;;;;;;0.45;0.45;;;;;;;15.92;68.17;101878.69;18309339;32;20085;-58
2022/10/28 02:36:43;;;;;;;0.68;0.68;;;;;;;15.84;68.63;101877.81;18308572;32;20167;-58
2022/10/28 02:46:49;;;;;;;0.90;0.57;;;;;;;15.89;68.30;101876.03;18308811;32;20421;-58
2022/10/28 02:56:57;;;;;;;1.20;0.50;;;;;;;15.93;68.04;101877.84;18308668;32;20438;-58
2022/10/28 03:07:00;;;;;;;0.25;0.25;;;;;;;15.80;68.07;101873.41;18308323;32;20115;-58
2022/10/28 03:17:06;;;;;;;0.30;0.30;;;;;;;15.73;68.58;101869.91;18308033;32;20156;-58
2022/10/28 03:27:09;;;;;;;1.75;0.57;;;;;;;15.80;68.46;101868.16;18308847;32;20117;-58
2022/10/28 03:37:14;;;;;;;1.33;0.35;;;;;;;15.79;68.71;101869.94;18302539;32;153059;-58
2022/10/28 03:47:17;;;;;;;0.28;0.28;;;;;;;15.85;68.58;101870.78;18307185;32;20110;-58
2022/10/28 03:57:21;;;;;;;0.52;0.52;;;;;;;15.79;68.71;101871.66;18306736;32;20143;-58
2022/10/28 04:07:24;;;;;;;0.30;0.30;;;;;;;15.03;71.92;101872.47;18306311;32;20108;-57
2022/10/28 04:17:29;;;;;;;2.42;1.98;;;;;;;15.10;72.20;101871.59;18305820;32;20472;-58
2022/10/28 04:27:32;;;;;;;0.80;0.80;;;;;;;15.14;72.27;101858.44;18271236;32;20434;-57
2022/10/28 04:37:37;;;;;;;2.30;0.47;;;;;;;15.30;71.22;101847.09;18270312;32;20374;-58
2022/10/28 04:47:40;;;;;;;0.40;0.40;;;;;;;14.83;73.72;101840.84;18242124;32;20118;-58
2022/10/28 04:57:44;;;;;;;0.30;0.30;;;;;;;15.05;72.25;101831.25;18241694;32;20105;-57
2022/10/28 05:07:47;;;;;;;0.65;0.65;;;;;;;15.37;71.03;101833.06;18242237;32;20172;-58
2022/10/28 05:17:52;;;;;;;0.30;0.30;;;;;;;15.53;70.64;101830.44;18241093;32;20471;-57
2022/10/28 05:27:58;;;;;;;1.17;0.80;;;;;;;15.48;70.56;101842.72;18240806;32;20161;-57
2022/10/28 05:38:03;;;;;;;0.52;0.52;;;;;;;14.88;72.79;101841.75;18238889;32;20089;-58
2022/10/28 05:48:06;;;;;;;1.65;1.00;;;;;;;15.46;70.57;101844.44;18239333;32;20497;-58
2022/10/28 05:58:11;;;;;;;0.98;0.35;;;;;;;15.49;70.51;101861.13;18236708;32;20105;-58
2022/10/28 06:08:14;;;;;;;0.60;0.60;;;;;;;14.63;73.35;101873.16;18239380;32;20404;-58
2022/10/28 06:18:20;;;;;;;0.20;0.20;;;;;;;14.35;74.96;101880.87;18293959;32;20094;-57
2022/10/28 06:28:23;;;;;;;0.62;0.62;;;;;;;13.72;77.79;101887.44;18300847;32;20088;-58
2022/10/28 06:38:28;;;;;;;0.40;0.40;;;;;;;13.40;79.47;101893.25;18300108;32;20102;-57
2022/10/28 06:48:32;;;;;;;0.80;0.73;;;;;;;14.47;75.30;101897.63;18299569;32;20101;-58
2022/10/28 06:58:36;;;;;;;0.80;0.65;;;;;;;14.36;75.41;101898.41;18306027;32;20073;-57
2022/10/28 07:08:39;;;;;;;0.30;0.30;;;;;;;14.71;73.94;101891.59;18306813;32;20107;-58
2022/10/28 07:18:44;;;;;;;0.62;0.62;;;;;;;15.05;72.65;101883.84;18304976;32;20104;-58
2022/10/28 07:28:47;;;;;;;0.60;0.60;;;;;;;15.24;72.12;101886.53;18307260;32;20107;-57
2022/10/28 07:38:52;;;;;;;0.30;0.30;;;;;;;15.69;71.49;101897.09;18306687;32;20105;-58
2022/10/28 07:48:55;;;;;;;0.35;0.35;;;;;;;15.70;70.52;101903.25;18306759;32;20089;-57
2022/10/28 07:59:00;;;;;;;0.20;0.20;;;;;;;15.85;69.60;101892.75;18301741;32;20105;-58
2022/10/28 08:09:03;;;;;;;0.43;0.43;;;;;;;15.59;71.17;101887.44;18304472;32;20235;-57
2022/10/28 08:19:08;;;;;;;0.25;0.25;;;;;;;15.71;70.79;101874.31;18286844;32;20421;-57
2022/10/28 08:29:11;;;;;;;0.62;0.62;;;;;;;15.80;70.08;101886.59;18305379;32;20412;-57
2022/10/28 08:39:16;;;;;;;0.47;0.47;;;;;;;15.71;70.09;101905.00;18305359;32;20097;-57
2022/10/28 08:49:22;;;;;;;0.65;0.40;;;;;;;15.98;69.41;101890.13;18290943;32;20112;-58
2022/10/28 08:59:30;;;;;;;0.73;0.73;;;;;;;16.06;69.53;101902.38;18305217;32;20103;-58
2022/10/28 09:09:33;;;;;;;0.30;0.30;;;;;;;16.10;68.95;101911.16;18276306;32;20189;-57
2022/10/28 09:19:43;;;;;;;0.55;0.37;;;;;;;16.12;69.00;101909.41;18275879;32;20097;-59
2022/10/28 09:29:53;;;;;;;0.40;0.40;;;;;;;16.24;68.86;101900.63;18283025;32;20098;-58
2022/10/28 09:40:01;;;;;;;0.65;0.40;;;;;;;16.07;69.22;101903.28;18254152;32;20508;-59
2022/10/28 09:50:11;;;;;;;0.30;0.30;;;;;;;16.06;69.53;101910.28;18287740;32;20103;-59
2022/10/28 10:00:17;;;;;;;0.37;0.37;;;;;;;16.15;68.69;101898.88;18302413;32;20548;-59
2022/10/28 10:10:23;;;;;;;0.73;0.73;;;;;;;16.14;68.76;101910.31;18287743;32;20196;-59
2022/10/28 10:20:28;;;;;;;3.65;0.68;;;;;;;16.01;69.37;101913.81;18289567;32;20501;-59
2022/10/28 10:30:33;;;;;;;0.30;0.30;;;;;;;16.04;69.41;101905.94;18306956;32;20098;-59
2022/10/28 10:40:41;;;;;;;0.30;0.30;;;;;;;16.34;68.62;101904.97;18308687;32;20082;-59
2022/10/28 10:50:45;;;;;;;0.32;0.30;;;;;;;16.49;67.95;101909.34;18308386;32;20090;-59
2022/10/28 11:00:51;;;;;;;1.83;0.73;;;;;;;16.39;67.97;101889.16;18307819;32;20183;-59
2022/10/28 11:11:06;;;;;;;0.20;0.20;;;;;;;16.30;67.89;101883.91;18308107;32;20429;-59
2022/10/28 11:21:47;;;;;;;0.43;0.43;;;;;;;16.29;68.48;101885.69;18307428;32;20113;-59
2022/10/28 11:32:26;;;;;;;0.45;0.45;;;;;;;16.51;67.44;101880.34;18170790;32;20107;-59
2022/10/28 11:42:40;;;;;;;0.30;0.30;;;;;;;15.87;70.09;101872.53;18046223;32;20837;-59
2022/10/28 11:53:28;;;;;;;0.45;0.45;;;;;;;16.58;67.25;101866.28;18046646;32;20181;-59
2022/10/28 12:04:00;;;;;;;0.90;0.75;;;;;;;16.51;66.97;101851.34;17950376;32;20130;-59
2022/10/28 12:14:10;;;;;;;2.28;0.70;;;;;;;16.35;67.42;101851.38;18062560;32;20122;-59
2022/10/28 12:24:16;;;;;;;1.92;1.10;;;;;;;16.56;66.93;101833.78;18101603;32;20450;-59
2022/10/28 12:34:23;;;;;;;0.80;0.65;;;;;;;16.32;67.65;101832.09;18112714;32;20112;-59
2022/10/28 12:44:28;;;;;;;0.40;0.40;;;;;;;16.37;67.45;101825.03;18241896;32;20117;-59
2022/10/28 12:54:40;;;;;;;1.10;0.93;;;;;;;16.67;66.31;101817.88;18227444;32;20104;-59
2022/10/28 13:04:45;;;;;;;0.82;0.80;;;;;;;16.65;66.57;101814.38;18242145;32;20142;-59
2022/10/28 13:15:00;;;;;;;0.28;0.28;;;;;;;16.62;66.59;101788.06;18241606;32;20097;-59
2022/10/28 13:25:17;;;;;;;1.17;1.00;;;;;;;16.64;66.61;101791.53;18044080;32;20115;-59
2022/10/28 13:35:22;;;;;;;0.52;0.52;;;;;;;16.63;67.01;101792.44;18061531;32;20382;-60
2022/10/28 13:45:50;;;;;;;0.57;0.57;;;;;;;16.38;68.09;101789.91;18238247;32;20097;-59
2022/10/28 13:55:57;;;;;;;0.55;0.37;;;;;;;16.89;65.89;101788.78;18240387;32;20094;-59
2022/10/28 14:06:01;;;;;;;0.40;0.40;;;;;;;16.59;66.87;101795.94;18237607;32;20422;-59
2022/10/28 14:16:22;;;;;;;0.30;0.30;;;;;;;16.61;66.85;101799.47;18234655;32;20146;-59
2022/10/28 14:26:26;;;;;;;0.85;0.85;;;;;;;16.64;66.64;101799.44;18253950;32;20107;-59
2022/10/28 14:36:34;;;;;;;0.98;0.82;;;;;;;16.70;66.56;101799.44;18299531;32;20141;-60
2022/10/28 14:46:59;;;;;;;0.73;0.73;;;;;;;16.74;66.17;101793.25;18298199;32;20452;-58
2022/10/28 14:57:03;;;;;;;3.25;1.55;;;;;;;16.64;66.51;101787.13;18298704;32;20474;-59
2022/10/28 15:07:10;;;;;;;2.35;1.67;;;;;;;16.54;66.56;101777.53;18298523;32;20089;-59
2022/10/28 15:17:16;;;;;;;0.62;0.43;;;;;;;16.70;66.15;101770.44;18305772;32;20102;-59
2022/10/28 15:27:21;;;;;;;0.62;0.62;;;;;;;16.56;66.57;101752.06;18279678;32;20105;-59
2022/10/28 15:37:26;;;;;;;0.62;0.62;;;;;;;16.39;66.80;101762.66;18241147;32;20101;-59
2022/10/28 15:47:32;;;;;;;1.85;0.70;;;;;;;16.39;67.04;101760.03;18243507;32;20090;-59
2022/10/28 15:57:47;;;;;;;2.45;1.83;;;;;;;16.30;67.83;101762.69;18243714;32;20128;-59
2022/10/28 16:07:51;;;;;;;3.67;2.80;;;;;;;16.37;67.35;101764.44;18284138;32;20141;-58
2022/10/28 16:17:55;;;;;;;1.90;1.08;;;;;;;16.33;67.36;101750.41;18306545;32;20089;-59
2022/10/28 16:28:00;;;;;;;0.80;0.80;;;;;;;16.37;67.33;101753.91;18306183;32;20089;-59
2022/10/28 16:38:03;;;;;;;0.85;0.85;;;;;;;16.42;67.49;101761.78;18305476;32;20108;-59
2022/10/28 16:48:11;;;;;;;4.07;1.70;;;;;;;16.43;67.29;101760.91;18305554;32;20464;-59
2022/10/28 16:58:14;;;;;;;0.30;0.30;;;;;;;16.22;67.78;101768.91;18305141;32;20104;-59
2022/10/28 17:08:19;;;;;;;0.20;0.20;;;;;;;16.15;67.98;101767.16;18305909;32;20387;-59
2022/10/28 17:18:43;;;;;;;0.13;0.13;;;;;;;16.31;67.54;101769.72;18305690;32;20097;-59
2022/10/28 17:28:52;;;;;;;0.30;0.28;;;;;;;16.22;67.94;101765.37;18304541;32;20111;-59
2022/10/28 17:38:56;;;;;;;1.02;1.00;;;;;;;16.26;68.02;101758.34;18288634;32;20098;-59
2022/10/28 17:49:07;;;;;;;9.80;3.55;;;;;;;16.25;68.24;101775.03;18225700;32;20457;-59
2022/10/28 17:59:10;;;;;;;2.40;0.83;;;;;;;16.37;67.77;101767.97;18225457;32;20120;-59
2022/10/28 18:09:14;;;;;;;1.75;0.85;;;;;;;16.23;68.14;101773.28;18251409;32;20090;-59
2022/10/28 18:19:18;;;;;;;1.42;1.25;;;;;;;16.20;68.16;101765.37;18238561;32;20148;-59
2022/10/28 18:29:22;;;;;;;1.17;0.82;;;;;;;16.21;68.26;101768.91;18237996;32;20520;-59
2022/10/28 18:39:26;;;;;;;4.00;1.15;;;;;;;16.28;67.59;101761.84;18237196;32;20160;-59
2022/10/28 18:49:30;;;;;;;0.20;0.20;;;;;;;16.08;68.21;101744.34;18240030;32;20117;-58
2022/10/28 18:59:34;;;;;;;1.65;1.10;;;;;;;16.08;67.80;101734.72;18245155;32;20087;-58
2022/10/28 19:09:56;;;;;;;0.75;0.75;;;;;;;16.13;67.65;101737.31;18230938;32;20101;-59
2022/10/28 19:19:59;;;;;;;1.27;0.60;;;;;;;16.08;67.90;101734.72;18292757;32;20124;-59
2022/10/28 19:30:04;;;;;;;1.65;0.62;;;;;;;16.02;68.27;101745.25;18293211;32;20093;-59
2022/10/28 19:40:12;;;;;;;2.25;0.70;;;;;;;16.10;68.00;101758.41;18307342;32;20159;-59
2022/10/28 19:50:17;;;;;;;0.30;0.30;;;;;;;16.23;67.69;101754.84;18292876;32;20106;-59
2022/10/28 20:00:20;;;;;;;0.50;0.50;;;;;;;16.27;67.36;101749.56;18305532;32;20120;-59
2022/10/28 20:10:25;;;;;;;2.90;1.17;;;;;;;16.22;67.34;101753.09;18306255;32;20093;-59
2022/10/28 20:20:28;;;;;;;0.50;0.50;;;;;;;16.18;67.51;101753.97;18292127;32;20457;-59
2022/10/28 20:30:32;;;;;;;0.30;0.30;;;;;;;16.17;67.64;101765.41;18306869;32;20116;-59
2022/10/28 20:40:35;;;;;;;0.25;0.25;;;;;;;16.23;67.38;101764.50;18292247;32;20086;-58
2022/10/28 20:50:49;;;;;;;0.52;0.52;;;;;;;16.19;66.93;101776.81;18305157;32;20082;-59
2022/10/28 21:00:53;;;;;;;2.83;0.95;;;;;;;16.28;66.78;101772.37;18305017;32;20400;-59
2022/10/28 21:11:01;;;;;;;0.28;0.28;;;;;;;16.14;66.98;101768.06;18303879;32;20109;-59
2022/10/28 21:21:05;;;;;;;0.50;0.50;;;;;;;16.21;67.01;101767.12;18304628;32;20104;-58
2022/10/28 21:31:10;;;;;;;0.43;0.37;;;;;;;16.18;67.05;101761.88;18304271;32;20385;-59
2022/10/28 21:41:15;;;;;;;0.20;0.20;;;;;;;16.15;67.30;101751.38;18303481;32;20094;-59
2022/10/28 21:51:19;;;;;;;0.30;0.30;;;;;;;16.07;67.53;101750.50;18303090;32;20093;-59
2022/10/28 22:01:23;;;;;;;1.10;0.77;;;;;;;16.19;66.89;101741.69;18303582;32;20161;-59
2022/10/28 22:11:28;;;;;;;0.40;0.40;;;;;;;16.16;66.85;101737.31;18302932;32;20097;-59
2022/10/28 22:21:33;;;;;;;0.73;0.40;;;;;;;16.02;67.61;101739.09;18303358;32;20405;-59
2022/10/28 22:31:38;;;;;;;0.52;0.52;;;;;;;15.99;67.61;101739.13;18309273;32;20160;-59
2022/10/28 22:41:41;;;;;;;0.28;0.28;;;;;;;15.99;67.45;101723.31;18308951;32;20102;-59
2022/10/28 22:51:45;;;;;;;0.40;0.40;;;;;;;16.06;67.35;101722.44;18309530;32;20160;-59
2022/10/28 23:01:48;;;;;;;1.30;1.20;;;;;;;16.05;67.48;101715.41;18308563;32;20094;-58
2022/10/28 23:11:53;;;;;;;0.43;0.43;;;;;;;15.98;67.68;101717.16;18308546;32;20104;-59
2022/10/28 23:22:00;;;;;;;0.28;0.28;;;;;;;15.90;67.89;101709.31;18308066;32;20116;-59
2022/10/28 23:32:05;;;;;;;0.20;0.20;;;;;;;15.98;67.63;101700.50;18307388;32;20107;-58
2022/10/28 23:42:08;;;;;;;0.57;0.57;;;;;;;15.88;68.24;101695.25;18307017;32;20093;-58
2022/10/28 23:52:13;;;;;;;1.08;0.77;;;;;;;15.94;68.11;101699.62;18306853;32;20144;-58
